Time;durP1;ratioP1;P1;durP2;ratioP2;P2;SDS_P1;SDS_P2;PMS_P1;PMS_P2;Temp;Humidity;BMP_temperature;BMP_pressure;BME280_temperature;BME280_humidity;BME280_pressure;Samples;Min_cycle;Max_cycle;Signal;HPM_P1;HPM_P2
2022/01/14 00:00:10;;;;;;;;;;;4.30;99.90;;;;;;8396920;28;19924;-68
2022/01/14 00:04:11;;;;;;;;;;;4.30;99.90;;;;;;8388949;28;19932;-68
2022/01/14 00:08:13;;;;;;;;;;;4.30;99.90;;;;;;8386874;28;19929;-68
2022/01/14 00:12:18;;;;;;;;;;;4.30;99.90;;;;;;8389743;28;20340;-68
2022/01/14 00:16:21;;;;;;;;;;;4.30;99.90;;;;;;8374375;28;19947;-68
2022/01/14 00:20:22;;;;;;;;;;;4.30;99.90;;;;;;8390512;28;19924;-68
2022/01/14 00:24:29;;;;;;;;;;;4.30;99.90;;;;;;8386623;28;19924;-68
2022/01/14 00:33:02;;;;;;;;;;;4.30;99.90;;;;;;8387081;28;19960;-68
2022/01/14 00:37:03;;;;;;;;;;;4.30;99.90;;;;;;8387276;28;19990;-68
2022/01/14 00:41:05;;;;;;;;;;;4.30;99.90;;;;;;8386295;28;19936;-68
2022/01/14 00:45:07;;;;;;;;;;;4.30;99.90;;;;;;8373250;28;19932;-68
2022/01/14 00:49:09;;;;;;;;;;;4.30;99.90;;;;;;8393561;28;19924;-68
2022/01/14 00:53:11;;;;;;;;;;;4.30;99.90;;;;;;8389880;28;19925;-68
2022/01/14 00:57:27;;;;;;;;;;;4.30;99.90;;;;;;8368693;28;19935;-68
2022/01/14 01:01:29;;;;;;;;;;;4.40;99.90;;;;;;8365050;28;20020;-69
2022/01/14 01:05:31;;;;;;;;;;;4.40;99.90;;;;;;8387447;28;19932;-68
2022/01/14 01:09:33;;;;;;;;;;;4.40;99.90;;;;;;8382615;28;20360;-68
2022/01/14 01:13:37;;;;;;;;;;;4.40;99.90;;;;;;8371850;28;20375;-68
2022/01/14 01:17:39;;;;;;;;;;;4.40;99.90;;;;;;8387999;28;19953;-68
2022/01/14 01:21:41;;;;;;;;;;;4.40;99.90;;;;;;8387787;28;19924;-68
2022/01/14 01:25:48;;;;;;;;;;;4.40;99.90;;;;;;8384567;28;19932;-68
2022/01/14 01:30:00;;;;;;;;;;;4.40;99.90;;;;;;8384630;28;20263;-68
2022/01/14 01:34:03;;;;;;;;;;;4.30;99.90;;;;;;8387278;28;19924;-68
2022/01/14 01:38:04;;;;;;;;;;;4.20;99.90;;;;;;8371523;28;19924;-68
2022/01/14 01:42:08;;;;;;;;;;;4.20;99.90;;;;;;8392504;28;19947;-68
2022/01/14 01:46:10;;;;;;;;;;;4.10;99.90;;;;;;8376232;28;19931;-68
2022/01/14 01:50:14;;;;;;;;;;;4.10;99.90;;;;;;8371702;28;19975;-68
2022/01/14 01:54:16;;;;;;;;;;;4.10;99.90;;;;;;8382518;28;19975;-68
2022/01/14 01:58:18;;;;;;;;;;;4.10;99.90;;;;;;8393367;28;19928;-68
2022/01/14 02:02:19;;;;;;;;;;;4.00;99.90;;;;;;8380229;28;19925;-68
2022/01/14 02:06:22;;;;;;;;;;;4.10;99.90;;;;;;8396092;28;19968;-68
2022/01/14 02:10:24;;;;;;;;;;;4.00;99.90;;;;;;8391976;28;19924;-68
2022/01/14 02:15:12;;;;;;;;;;;4.00;99.90;;;;;;8386430;28;20376;-68
2022/01/14 02:23:04;;;;;;;;;;;4.10;99.90;;;;;;8377086;28;20014;-68
2022/01/14 02:27:06;;;;;;;;;;;4.10;99.90;;;;;;8367823;28;19935;-68
2022/01/14 02:31:08;;;;;;;;;;;4.10;99.90;;;;;;8384026;28;20414;-68
2022/01/14 02:35:10;;;;;;;;;;;4.10;99.90;;;;;;8381103;28;19937;-68
2022/01/14 02:39:17;;;;;;;;;;;4.10;99.90;;;;;;8382242;28;19924;-69
2022/01/14 02:43:19;;;;;;;;;;;4.10;99.90;;;;;;8380256;28;19968;-68
2022/01/14 02:47:21;;;;;;;;;;;4.10;99.90;;;;;;8388488;28;19935;-68
2022/01/14 02:51:22;;;;;;;;;;;4.10;99.90;;;;;;8391880;28;20042;-69
2022/01/14 02:55:29;;;;;;;;;;;4.10;99.90;;;;;;8373364;28;20366;-68
2022/01/14 02:59:31;;;;;;;;;;;4.10;99.90;;;;;;8392737;28;20414;-68
2022/01/14 03:03:33;;;;;;;;;;;4.10;99.90;;;;;;8386174;28;19931;-68
2022/01/14 03:07:38;;;;;;;;;;;4.10;99.90;;;;;;8389105;28;19972;-68
2022/01/14 03:11:47;;;;;;;;;;;4.10;99.90;;;;;;8376579;28;20296;-68
2022/01/14 03:15:49;;;;;;;;;;;4.10;99.90;;;;;;8397859;28;20017;-68
2022/01/14 03:19:51;;;;;;;;;;;4.10;99.90;;;;;;8389162;28;19971;-68
2022/01/14 03:24:03;;;;;;;;;;;4.00;99.90;;;;;;8369658;28;19959;-68
2022/01/14 03:28:04;;;;;;;;;;;4.00;99.90;;;;;;8392278;28;19936;-68
2022/01/14 03:32:07;;;;;;;;;;;4.00;99.90;;;;;;8387975;28;19932;-68
2022/01/14 03:36:09;;;;;;;;;;;4.00;99.90;;;;;;8392644;28;20012;-68
2022/01/14 03:40:10;;;;;;;;;;;3.90;99.90;;;;;;8375648;28;20355;-68
2022/01/14 03:44:12;;;;;;;;;;;3.90;99.90;;;;;;8380201;28;19968;-68
2022/01/14 03:48:14;;;;;;;;;;;3.90;99.90;;;;;;8371508;28;20292;-68
2022/01/14 03:52:16;;;;;;;;;;;3.90;99.90;;;;;;8380617;28;19929;-68
2022/01/14 03:56:18;;;;;;;;;;;3.80;99.90;;;;;;8384127;28;19936;-68
2022/01/14 04:00:20;;;;;;;;;;;3.80;99.90;;;;;;8374862;28;19925;-68
2022/01/14 04:04:21;;;;;;;;;;;3.80;99.90;;;;;;8387873;28;20006;-68
2022/01/14 04:08:23;;;;;;;;;;;3.80;99.90;;;;;;8396982;28;19972;-68
2022/01/14 04:12:51;;;;;;;;;;;3.80;99.90;;;;;;8390862;28;19929;-68
2022/01/14 04:16:53;;;;;;;;;;;3.80;99.90;;;;;;8386758;28;19932;-69
2022/01/14 04:20:55;;;;;;;;;;;3.80;99.90;;;;;;8389107;28;19931;-68
2022/01/14 04:24:57;;;;;;;;;;;3.80;99.90;;;;;;8387325;28;19964;-68
2022/01/14 04:28:58;;;;;;;;;;;3.80;99.90;;;;;;8389434;28;19935;-69
2022/01/14 04:33:01;;;;;;;;;;;3.80;99.90;;;;;;8366774;28;19976;-68
2022/01/14 04:37:02;;;;;;;;;;;3.80;99.90;;;;;;8375230;28;20311;-68
2022/01/14 04:41:04;;;;;;;;;;;3.70;99.90;;;;;;8390953;28;19972;-68
2022/01/14 04:45:06;;;;;;;;;;;3.70;99.90;;;;;;8378243;28;19932;-68
2022/01/14 04:49:08;;;;;;;;;;;3.80;99.90;;;;;;8375119;28;19972;-68
2022/01/14 04:53:10;;;;;;;;;;;3.80;99.90;;;;;;8386943;28;19939;-67
2022/01/14 04:57:11;;;;;;;;;;;3.80;99.90;;;;;;8386332;28;19979;-68
2022/01/14 05:01:13;;;;;;;;;;;3.80;99.90;;;;;;8377383;28;20011;-68
2022/01/14 05:05:17;;;;;;;;;;;3.80;99.90;;;;;;8364045;28;19982;-68
2022/01/14 05:09:21;;;;;;;;;;;3.80;99.90;;;;;;8380909;28;19936;-68
2022/01/14 05:13:24;;;;;;;;;;;3.80;99.90;;;;;;8359805;28;19925;-68
2022/01/14 05:17:25;;;;;;;;;;;3.80;99.90;;;;;;8379895;28;20365;-68
2022/01/14 05:21:27;;;;;;;;;;;3.80;99.90;;;;;;8379016;28;19975;-68
2022/01/14 05:25:29;;;;;;;;;;;3.80;99.90;;;;;;8379474;28;19933;-68
2022/01/14 05:29:30;;;;;;;;;;;3.80;99.90;;;;;;8366782;28;19970;-67
2022/01/14 05:33:34;;;;;;;;;;;3.80;99.90;;;;;;8386207;28;21328;-68
2022/01/14 05:37:35;;;;;;;;;;;3.80;99.90;;;;;;8399230;28;19975;-68
2022/01/14 05:41:37;;;;;;;;;;;3.90;99.90;;;;;;8393498;28;19935;-68
2022/01/14 05:45:39;;;;;;;;;;;3.90;99.90;;;;;;8365654;28;19986;-68
2022/01/14 05:49:40;;;;;;;;;;;3.90;99.90;;;;;;8394933;28;20422;-69
2022/01/14 05:53:42;;;;;;;;;;;3.80;99.90;;;;;;8387224;28;20367;-68
2022/01/14 05:57:44;;;;;;;;;;;3.80;99.90;;;;;;8387705;28;19966;-68
2022/01/14 06:01:46;;;;;;;;;;;3.90;99.90;;;;;;8368939;28;19935;-69
2022/01/14 06:05:47;;;;;;;;;;;3.80;99.90;;;;;;8382328;28;19956;-68
2022/01/14 06:09:49;;;;;;;;;;;3.80;99.90;;;;;;8392482;28;19975;-68
2022/01/14 06:13:51;;;;;;;;;;;3.80;99.90;;;;;;8390272;28;20261;-69
2022/01/14 06:17:52;;;;;;;;;;;3.80;99.90;;;;;;8384453;28;19928;-68
2022/01/14 06:21:54;;;;;;;;;;;3.80;99.90;;;;;;8384653;28;19931;-68
2022/01/14 06:25:55;;;;;;;;;;;3.80;99.90;;;;;;8411200;28;19955;-68
2022/01/14 06:29:57;;;;;;;;;;;3.80;99.90;;;;;;8388694;28;20031;-68
2022/01/14 06:33:59;;;;;;;;;;;3.70;99.90;;;;;;8393230;28;19950;-68
2022/01/14 06:38:00;;;;;;;;;;;3.70;99.90;;;;;;8396743;28;19979;-68
2022/01/14 06:42:02;;;;;;;;;;;3.70;99.90;;;;;;8387054;28;20000;-68
2022/01/14 06:46:04;;;;;;;;;;;3.70;99.90;;;;;;8389547;28;20009;-68
2022/01/14 06:50:05;;;;;;;;;;;3.70;99.90;;;;;;8397324;28;19932;-68
2022/01/14 06:54:07;;;;;;;;;;;3.70;99.90;;;;;;8389993;28;19940;-69
2022/01/14 06:58:09;;;;;;;;;;;3.70;99.90;;;;;;8411739;28;19940;-68
2022/01/14 07:02:10;;;;;;;;;;;3.70;99.90;;;;;;8398481;28;19971;-69
2022/01/14 07:06:12;;;;;;;;;;;3.70;99.90;;;;;;8391237;28;19960;-69
2022/01/14 07:10:14;;;;;;;;;;;3.70;99.90;;;;;;8390361;28;19975;-68
2022/01/14 07:14:15;;;;;;;;;;;3.70;99.90;;;;;;8379176;28;19928;-69
2022/01/14 07:18:17;;;;;;;;;;;3.70;99.90;;;;;;8394324;28;19951;-68
2022/01/14 07:22:19;;;;;;;;;;;3.70;99.90;;;;;;8391382;28;19980;-68
2022/01/14 07:26:21;;;;;;;;;;;3.70;99.90;;;;;;8382934;28;20332;-68
2022/01/14 07:30:23;;;;;;;;;;;3.70;99.90;;;;;;8386913;28;19960;-68
2022/01/14 07:34:25;;;;;;;;;;;3.70;99.90;;;;;;8393629;28;19928;-68
2022/01/14 07:38:26;;;;;;;;;;;3.80;99.90;;;;;;8400855;28;19924;-68
2022/01/14 07:42:28;;;;;;;;;;;3.70;99.90;;;;;;8389719;28;19932;-69
2022/01/14 07:46:30;;;;;;;;;;;3.80;99.90;;;;;;8395413;28;19924;-68
2022/01/14 07:50:31;;;;;;;;;;;3.80;99.90;;;;;;8395199;28;19924;-68
2022/01/14 07:54:33;;;;;;;;;;;3.80;99.90;;;;;;8393915;28;20008;-69
2022/01/14 07:58:35;;;;;;;;;;;3.90;99.90;;;;;;8374650;28;19947;-68
2022/01/14 08:02:37;;;;;;;;;;;3.90;99.90;;;;;;8395305;28;19932;-68
2022/01/14 08:06:45;;;;;;;;;;;3.90;99.90;;;;;;8390413;28;19924;-68
2022/01/14 08:10:46;;;;;;;;;;;3.90;99.90;;;;;;8386193;28;19939;-68
2022/01/14 08:14:48;;;;;;;;;;;3.80;99.90;;;;;;8385056;28;19925;-69
2022/01/14 08:18:49;;;;;;;;;;;3.80;99.90;;;;;;8394216;28;19976;-68
2022/01/14 08:22:51;;;;;;;;;;;3.80;99.90;;;;;;8385870;28;19960;-68
2022/01/14 08:26:53;;;;;;;;;;;3.80;99.90;;;;;;8387828;28;20386;-69
2022/01/14 08:30:54;;;;;;;;;;;3.80;99.90;;;;;;8372218;28;19928;-68
2022/01/14 08:34:56;;;;;;;;;;;3.80;99.90;;;;;;8386545;28;19958;-68
2022/01/14 08:38:59;;;;;;;;;;;3.80;99.90;;;;;;8394487;28;19947;-69
2022/01/14 08:43:01;;;;;;;;;;;3.80;99.90;;;;;;8391548;28;19925;-68
2022/01/14 08:47:05;;;;;;;;;;;3.80;99.90;;;;;;8390233;28;20404;-68
2022/01/14 08:51:07;;;;;;;;;;;3.80;99.90;;;;;;8392461;28;19931;-68
2022/01/14 08:55:08;;;;;;;;;;;3.80;99.90;;;;;;8381757;28;19951;-68
2022/01/14 08:59:10;;;;;;;;;;;3.80;99.90;;;;;;8389370;28;19963;-69
2022/01/14 09:03:12;;;;;;;;;;;3.90;99.90;;;;;;8370631;28;19971;-68
2022/01/14 09:07:13;;;;;;;;;;;3.90;99.90;;;;;;8383025;28;19978;-68
2022/01/14 09:11:15;;;;;;;;;;;3.90;99.90;;;;;;8391164;28;19925;-68
2022/01/14 09:15:17;;;;;;;;;;;3.90;99.90;;;;;;8380609;28;19932;-68
2022/01/14 09:19:20;;;;;;;;;;;3.90;99.90;;;;;;8385855;28;19925;-68
2022/01/14 09:23:23;;;;;;;;;;;3.90;99.90;;;;;;8390565;28;19935;-69
2022/01/14 09:27:26;;;;;;;;;;;3.90;99.90;;;;;;8389530;28;19967;-68
2022/01/14 09:31:31;;;;;;;;;;;4.00;99.90;;;;;;8391931;28;19928;-68
2022/01/14 09:35:33;;;;;;;;;;;4.00;99.90;;;;;;8383887;28;20348;-69
2022/01/14 09:39:36;;;;;;;;;;;4.00;99.90;;;;;;8383314;28;19925;-68
2022/01/14 09:43:39;;;;;;;;;;;4.00;99.90;;;;;;8392707;28;20015;-68
2022/01/14 09:47:42;;;;;;;;;;;4.00;99.90;;;;;;8389805;28;20381;-69
2022/01/14 09:51:44;;;;;;;;;;;4.00;99.90;;;;;;8375328;28;19956;-68
2022/01/14 09:55:45;;;;;;;;;;;4.10;99.90;;;;;;8382641;28;19998;-69
2022/01/14 09:59:47;;;;;;;;;;;4.10;99.90;;;;;;8390904;28;20339;-68
2022/01/14 10:03:53;;;;;;;;;;;4.10;99.90;;;;;;8389166;28;19942;-69
2022/01/14 10:08:18;;;;;;;;;;;4.20;99.90;;;;;;8391506;28;19925;-68
2022/01/14 10:12:20;;;;;;;;;;;4.20;99.90;;;;;;8390288;28;19935;-68
2022/01/14 10:16:23;;;;;;;;;;;4.30;99.90;;;;;;8397365;28;20367;-69
2022/01/14 10:20:35;;;;;;;;;;;4.30;99.90;;;;;;8397726;28;19924;-68
2022/01/14 10:24:37;;;;;;;;;;;4.40;99.90;;;;;;8392695;28;20295;-67
2022/01/14 10:28:38;;;;;;;;;;;4.50;99.90;;;;;;8394925;28;19924;-68
2022/01/14 10:32:41;;;;;;;;;;;4.60;99.90;;;;;;8396307;28;19928;-68
2022/01/14 10:36:44;;;;;;;;;;;4.60;99.90;;;;;;8390920;28;19971;-68
2022/01/14 10:40:50;;;;;;;;;;;4.60;99.90;;;;;;8392890;28;19939;-68
2022/01/14 10:44:52;;;;;;;;;;;4.60;99.90;;;;;;8380741;28;19931;-68
2022/01/14 10:48:54;;;;;;;;;;;4.60;99.90;;;;;;8394457;28;19966;-69
2022/01/14 10:52:56;;;;;;;;;;;4.70;99.90;;;;;;8393298;28;19931;-68
2022/01/14 10:57:10;;;;;;;;;;;4.80;99.90;;;;;;8392570;28;19925;-68
2022/01/14 11:01:15;;;;;;;;;;;4.80;99.90;;;;;;8373695;28;20730;-68
2022/01/14 11:05:18;;;;;;;;;;;4.80;99.90;;;;;;8375813;28;19935;-69
2022/01/14 11:09:22;;;;;;;;;;;4.90;99.90;;;;;;8380139;28;20372;-69
2022/01/14 11:13:24;;;;;;;;;;;4.90;99.90;;;;;;8377936;28;20388;-69
2022/01/14 11:17:26;;;;;;;;;;;4.90;99.90;;;;;;8389793;28;20021;-69
2022/01/14 11:26:11;;;;;;;;;;;5.00;99.90;;;;;;8386874;28;19978;-68
2022/01/14 11:30:13;;;;;;;;;;;5.00;99.90;;;;;;8386241;28;19931;-69
2022/01/14 11:34:30;;;;;;;;;;;5.10;99.90;;;;;;8388557;28;19924;-68
2022/01/14 11:38:33;;;;;;;;;;;5.10;99.90;;;;;;8385081;28;19936;-68
2022/01/14 11:42:49;;;;;;;;;;;5.20;99.90;;;;;;8386826;28;19924;-68
2022/01/14 11:46:59;;;;;;;;;;;5.20;99.90;;;;;;8389641;28;19971;-68
2022/01/14 11:51:02;;;;;;;;;;;5.20;99.90;;;;;;8392312;28;20008;-68
2022/01/14 11:55:04;;;;;;;;;;;5.30;99.90;;;;;;8394108;28;19963;-69
2022/01/14 11:59:18;;;;;;;;;;;5.30;99.90;;;;;;8389485;28;20313;-69
2022/01/14 12:03:25;;;;;;;;;;;5.40;99.90;;;;;;8386601;28;19924;-68
2022/01/14 12:07:27;;;;;;;;;;;5.40;99.90;;;;;;8389054;28;19928;-68
2022/01/14 12:11:29;;;;;;;;;;;5.40;99.90;;;;;;8389039;28;19928;-69
2022/01/14 12:15:46;;;;;;;;;;;5.50;99.90;;;;;;8392359;28;20208;-69
2022/01/14 12:19:53;;;;;;;;;;;5.50;99.90;;;;;;8394546;28;19975;-69
2022/01/14 12:23:58;;;;;;;;;;;5.50;99.90;;;;;;8394250;28;20062;-68
2022/01/14 12:28:15;;;;;;;;;;;5.50;99.90;;;;;;8396056;28;19924;-68
2022/01/14 12:32:21;;;;;;;;;;;5.50;99.90;;;;;;8388200;28;19960;-69
2022/01/14 12:36:23;;;;;;;;;;;5.60;99.90;;;;;;8390286;28;19924;-69
2022/01/14 12:40:27;;;;;;;;;;;5.60;99.90;;;;;;8389327;28;19971;-69
2022/01/14 12:44:29;;;;;;;;;;;5.60;99.90;;;;;;8391523;28;20288;-68
2022/01/14 12:48:40;;;;;;;;;;;5.60;99.90;;;;;;8393142;28;19978;-69
2022/01/14 12:52:46;;;;;;;;;;;5.70;99.90;;;;;;8392508;28;20308;-69
2022/01/14 12:56:51;;;;;;;;;;;5.70;99.90;;;;;;8365703;28;19964;-68
2022/01/14 13:01:05;;;;;;;;;;;5.70;99.90;;;;;;8367320;28;19975;-69
2022/01/14 13:05:07;;;;;;;;;;;5.70;99.90;;;;;;8367327;28;19930;-70
2022/01/14 13:09:09;;;;;;;;;;;5.80;99.90;;;;;;8375336;28;19932;-69
2022/01/14 13:13:13;;;;;;;;;;;5.80;99.90;;;;;;8389778;28;19964;-68
2022/01/14 13:17:17;;;;;;;;;;;5.80;99.90;;;;;;8391084;28;19925;-72
2022/01/14 13:21:18;;;;;;;;;;;5.80;99.90;;;;;;8389125;28;19976;-70
2022/01/14 13:25:21;;;;;;;;;;;5.80;99.90;;;;;;8378082;28;19956;-71
2022/01/14 13:29:23;;;;;;;;;;;5.90;99.90;;;;;;8388490;28;20325;-71
2022/01/14 13:33:25;;;;;;;;;;;5.90;99.90;;;;;;8392624;28;20284;-70
2022/01/14 13:37:27;;;;;;;;;;;5.90;99.90;;;;;;8386668;28;20392;-70
2022/01/14 13:41:28;;;;;;;;;;;5.90;99.90;;;;;;8390821;28;19967;-70
2022/01/14 13:45:30;;;;;;;;;;;5.90;99.90;;;;;;8385749;28;19928;-70
2022/01/14 13:49:32;;;;;;;;;;;6.00;99.90;;;;;;8382633;28;19924;-70
2022/01/14 13:53:35;;;;;;;;;;;6.00;99.90;;;;;;8367644;28;20073;-70
2022/01/14 13:57:37;;;;;;;;;;;6.00;99.90;;;;;;8374526;28;19931;-70
2022/01/14 14:01:48;;;;;;;;;;;6.00;99.90;;;;;;8381127;28;19932;-70
2022/01/14 14:05:55;;;;;;;;;;;6.10;99.90;;;;;;8369705;28;19931;-70
2022/01/14 14:10:11;;;;;;;;;;;6.10;99.90;;;;;;8387918;28;20015;-70
2022/01/14 14:18:39;;;;;;;;;;;6.10;99.90;;;;;;8381659;28;19931;-71
2022/01/14 14:22:42;;;;;;;;;;;6.20;99.90;;;;;;8378789;28;20296;-71
2022/01/14 14:26:45;;;;;;;;;;;6.20;99.90;;;;;;8384269;28;19925;-71
2022/01/14 14:30:49;;;;;;;;;;;6.20;99.90;;;;;;8383969;28;19924;-69
2022/01/14 14:34:51;;;;;;;;;;;6.20;99.90;;;;;;8388474;28;20387;-69
2022/01/14 14:38:54;;;;;;;;;;;6.20;99.90;;;;;;8387091;28;20457;-68
2022/01/14 14:43:01;;;;;;;;;;;6.20;99.90;;;;;;8390699;28;19925;-69
2022/01/14 14:47:04;;;;;;;;;;;6.30;99.90;;;;;;8396567;28;19971;-69
2022/01/14 14:51:05;;;;;;;;;;;6.30;99.90;;;;;;8385665;28;20015;-69
2022/01/14 14:55:08;;;;;;;;;;;6.30;99.90;;;;;;8390790;28;19925;-69
2022/01/14 14:59:10;;;;;;;;;;;6.30;99.90;;;;;;8391459;28;19924;-68
2022/01/14 15:03:11;;;;;;;;;;;6.30;99.90;;;;;;8386204;28;19932;-68
2022/01/14 15:07:13;;;;;;;;;;;6.30;99.90;;;;;;8392472;28;19932;-68
2022/01/14 15:11:15;;;;;;;;;;;6.20;99.90;;;;;;8390786;28;20011;-68
2022/01/14 15:15:34;;;;;;;;;;;6.30;99.90;;;;;;8374402;28;19924;-68
2022/01/14 15:19:37;;;;;;;;;;;6.20;99.90;;;;;;8388993;28;19931;-68
2022/01/14 15:23:40;;;;;;;;;;;6.20;99.90;;;;;;8385825;28;19931;-68
2022/01/14 15:27:41;;;;;;;;;;;6.20;99.90;;;;;;8399695;28;20301;-69
2022/01/14 15:31:43;;;;;;;;;;;6.30;99.90;;;;;;8372177;28;19967;-70
2022/01/14 15:35:45;;;;;;;;;;;6.20;99.90;;;;;;8372749;28;19975;-69
2022/01/14 15:39:46;;;;;;;;;;;6.20;99.90;;;;;;8386290;28;20367;-69
2022/01/14 15:43:48;;;;;;;;;;;6.20;99.90;;;;;;8378746;28;19931;-69
2022/01/14 15:47:50;;;;;;;;;;;6.20;99.90;;;;;;8391569;28;20335;-69
2022/01/14 15:51:51;;;;;;;;;;;6.20;99.90;;;;;;8395986;28;20063;-69
2022/01/14 15:55:53;;;;;;;;;;;6.20;99.90;;;;;;8365650;28;19970;-69
2022/01/14 15:59:55;;;;;;;;;;;6.20;99.90;;;;;;8359660;28;20027;-69
2022/01/14 16:03:57;;;;;;;;;;;6.10;99.90;;;;;;8360623;28;19929;-69
2022/01/14 16:07:58;;;;;;;;;;;6.10;99.90;;;;;;8360251;28;19956;-69
2022/01/14 16:12:00;;;;;;;;;;;6.10;99.90;;;;;;8357494;28;20379;-68
2022/01/14 16:16:02;;;;;;;;;;;6.10;99.90;;;;;;8360269;28;19976;-69
2022/01/14 16:20:04;;;;;;;;;;;6.10;99.90;;;;;;8362878;28;19929;-69
2022/01/14 16:24:05;;;;;;;;;;;6.10;99.90;;;;;;8340759;28;19972;-69
2022/01/14 16:28:10;;;;;;;;;;;6.10;99.90;;;;;;8360106;28;19925;-69
2022/01/14 16:32:12;;;;;;;;;;;6.10;99.90;;;;;;8366398;28;20012;-69
2022/01/14 16:36:13;;;;;;;;;;;6.10;99.90;;;;;;8381866;28;19971;-70
2022/01/14 16:40:16;;;;;;;;;;;6.10;99.90;;;;;;8370169;28;20450;-69
2022/01/14 16:44:17;;;;;;;;;;;6.10;99.90;;;;;;8351792;28;20491;-69
2022/01/14 16:48:20;;;;;;;;;;;6.10;99.90;;;;;;8371585;28;19932;-70
2022/01/14 16:52:23;;;;;;;;;;;6.10;99.90;;;;;;8353541;28;19956;-69
2022/01/14 16:56:25;;;;;;;;;;;6.10;99.90;;;;;;8365748;28;19929;-69
2022/01/14 17:00:27;;;;;;;;;;;6.10;99.90;;;;;;8367182;28;19968;-69
2022/01/14 17:04:28;;;;;;;;;;;6.10;99.90;;;;;;8346145;28;19940;-69
2022/01/14 17:08:30;;;;;;;;;;;6.10;99.90;;;;;;8357667;28;19940;-69
2022/01/14 17:12:35;;;;;;;;;;;6.10;99.90;;;;;;8357221;28;19935;-69
2022/01/14 17:16:37;;;;;;;;;;;6.10;99.90;;;;;;8359630;28;19925;-69
2022/01/14 17:20:39;;;;;;;;;;;6.10;99.90;;;;;;8359921;28;19960;-69
2022/01/14 17:24:40;;;;;;;;;;;6.10;99.90;;;;;;8358921;28;19932;-70
2022/01/14 17:28:43;;;;;;;;;;;6.10;99.90;;;;;;8358296;28;19947;-69
2022/01/14 17:32:45;;;;;;;;;;;6.10;99.90;;;;;;8338992;28;19952;-69
2022/01/14 17:36:46;;;;;;;;;;;6.10;99.90;;;;;;8340074;28;19985;-69
2022/01/14 17:40:56;;;;;;;;;;;6.00;99.90;;;;;;8355599;28;19960;-70
2022/01/14 17:44:58;;;;;;;;;;;6.10;99.90;;;;;;8359038;28;19932;-70
2022/01/14 17:48:59;;;;;;;;;;;6.10;99.90;;;;;;8342106;28;19948;-69
2022/01/14 17:53:01;;;;;;;;;;;6.10;99.90;;;;;;8356165;28;19924;-69
2022/01/14 17:57:04;;;;;;;;;;;6.10;99.90;;;;;;8356933;28;19936;-69
2022/01/14 18:01:05;;;;;;;;;;;6.00;99.90;;;;;;8356292;28;19933;-69
2022/01/14 18:05:10;;;;;;;;;;;6.00;99.90;;;;;;8341009;28;19982;-69
2022/01/14 18:09:12;;;;;;;;;;;6.00;99.90;;;;;;8357518;28;19929;-72
2022/01/14 18:13:18;;;;;;;;;;;6.00;99.90;;;;;;8343634;28;19964;-71
2022/01/14 18:17:20;;;;;;;;;;;6.00;99.90;;;;;;8374794;28;20027;-72
2022/01/14 18:21:22;;;;;;;;;;;6.00;99.90;;;;;;8361734;28;19971;-70
2022/01/14 18:25:23;;;;;;;;;;;6.00;99.90;;;;;;8362574;28;20008;-71
2022/01/14 18:29:26;;;;;;;;;;;6.00;99.90;;;;;;8348444;28;20003;-71
2022/01/14 18:33:27;;;;;;;;;;;6.00;99.90;;;;;;8367018;28;20519;-70
2022/01/14 18:37:29;;;;;;;;;;;6.00;99.90;;;;;;8348512;28;20404;-71
2022/01/14 18:41:31;;;;;;;;;;;6.00;99.90;;;;;;8361812;28;20063;-71
2022/01/14 18:45:34;;;;;;;;;;;6.00;99.90;;;;;;8367136;28;19932;-71
2022/01/14 18:49:35;;;;;;;;;;;6.00;99.90;;;;;;8364445;28;20396;-70
2022/01/14 18:53:37;;;;;;;;;;;6.10;99.90;;;;;;8359773;28;19964;-71
2022/01/14 18:57:39;;;;;;;;;;;6.10;99.90;;;;;;8344165;28;20015;-71
2022/01/14 19:01:41;;;;;;;;;;;6.10;99.90;;;;;;8356480;28;19924;-71
2022/01/14 19:05:43;;;;;;;;;;;6.10;99.90;;;;;;8359330;28;20380;-71
2022/01/14 19:09:44;;;;;;;;;;;6.10;99.90;;;;;;8361693;28;20012;-71
2022/01/14 19:14:03;;;;;;;;;;;6.10;99.90;;;;;;8364039;28;19929;-71
2022/01/14 19:18:06;;;;;;;;;;;6.10;99.90;;;;;;8361942;28;20024;-70
2022/01/14 19:22:08;;;;;;;;;;;6.10;99.90;;;;;;8360626;28;19968;-69
2022/01/14 19:26:10;;;;;;;;;;;6.10;99.90;;;;;;8361298;28;20368;-69
2022/01/14 19:30:11;;;;;;;;;;;6.10;99.90;;;;;;8359902;28;19924;-69
2022/01/14 19:34:13;;;;;;;;;;;6.10;99.90;;;;;;8356741;28;19968;-69
2022/01/14 19:38:16;;;;;;;;;;;6.10;99.90;;;;;;8362134;28;19964;-69
2022/01/14 19:42:17;;;;;;;;;;;6.10;99.90;;;;;;8359551;28;19976;-69
2022/01/14 19:46:20;;;;;;;;;;;6.10;99.90;;;;;;8361111;28;20356;-69
2022/01/14 19:50:22;;;;;;;;;;;6.00;99.90;;;;;;8360938;28;20599;-70
2022/01/14 19:54:25;;;;;;;;;;;6.10;99.90;;;;;;8362151;28;19931;-69
2022/01/14 19:58:26;;;;;;;;;;;6.10;99.90;;;;;;8352512;28;19933;-69
2022/01/14 20:02:28;;;;;;;;;;;6.10;99.90;;;;;;8342583;28;20375;-70
2022/01/14 20:06:31;;;;;;;;;;;6.00;99.90;;;;;;8361594;28;19925;-69
2022/01/14 20:10:33;;;;;;;;;;;6.00;99.90;;;;;;8356550;28;19932;-69
2022/01/14 20:14:34;;;;;;;;;;;6.00;99.90;;;;;;8362676;28;20379;-69
2022/01/14 20:18:37;;;;;;;;;;;6.00;99.90;;;;;;8341594;28;20044;-69
2022/01/14 20:22:40;;;;;;;;;;;6.10;99.90;;;;;;8363053;28;20301;-69
2022/01/14 20:26:41;;;;;;;;;;;6.10;99.90;;;;;;8356999;28;20395;-70
2022/01/14 20:30:44;;;;;;;;;;;6.10;99.90;;;;;;8356435;28;20006;-69
2022/01/14 20:34:45;;;;;;;;;;;6.00;99.90;;;;;;8374904;28;20367;-69
2022/01/14 20:38:49;;;;;;;;;;;6.00;99.90;;;;;;8356213;28;19968;-69
2022/01/14 20:43:00;;;;;;;;;;;6.00;99.90;;;;;;8354534;28;19951;-69
2022/01/14 20:47:02;;;;;;;;;;;6.00;99.90;;;;;;8372119;28;19939;-69
2022/01/14 20:51:03;;;;;;;;;;;6.00;99.90;;;;;;8359820;28;20392;-69
2022/01/14 20:55:05;;;;;;;;;;;6.00;99.90;;;;;;8364049;28;19935;-69
2022/01/14 20:59:07;;;;;;;;;;;6.00;99.90;;;;;;8360807;28;19997;-69
2022/01/14 21:03:08;;;;;;;;;;;5.90;99.90;;;;;;8356007;28;20313;-69
2022/01/14 21:07:31;;;;;;;;;;;6.00;99.90;;;;;;8359442;28;20327;-69
2022/01/14 21:11:33;;;;;;;;;;;6.00;99.90;;;;;;8342480;28;19963;-69
2022/01/14 21:15:35;;;;;;;;;;;5.90;99.90;;;;;;8339466;28;20023;-70
2022/01/14 21:19:36;;;;;;;;;;;5.90;99.90;;;;;;8357246;28;19979;-69
2022/01/14 21:23:38;;;;;;;;;;;5.90;99.90;;;;;;8356317;28;19929;-70
2022/01/14 21:27:39;;;;;;;;;;;5.90;99.90;;;;;;8370931;28;20411;-69
2022/01/14 21:31:42;;;;;;;;;;;5.90;99.90;;;;;;8360362;28;19960;-69
2022/01/14 21:35:43;;;;;;;;;;;5.90;99.90;;;;;;8339924;28;19928;-69
2022/01/14 21:39:45;;;;;;;;;;;5.90;99.90;;;;;;8363908;28;20054;-69
2022/01/14 21:43:47;;;;;;;;;;;5.90;99.90;;;;;;8342295;28;20380;-69
2022/01/14 21:47:49;;;;;;;;;;;5.90;99.90;;;;;;8342864;28;19928;-70
2022/01/14 21:51:50;;;;;;;;;;;5.90;99.90;;;;;;8358353;28;20385;-69
2022/01/14 21:55:52;;;;;;;;;;;5.90;99.90;;;;;;8340334;28;19931;-69
2022/01/14 21:59:54;;;;;;;;;;;5.90;99.90;;;;;;8358207;28;19936;-69
2022/01/14 22:03:58;;;;;;;;;;;5.90;99.90;;;;;;8360187;28;19955;-68
2022/01/14 22:08:00;;;;;;;;;;;5.90;99.90;;;;;;8384403;28;19924;-69
2022/01/14 22:12:03;;;;;;;;;;;5.80;99.90;;;;;;8386684;28;19925;-69
2022/01/14 22:16:05;;;;;;;;;;;5.80;99.90;;;;;;8386848;28;20360;-70
2022/01/14 22:20:08;;;;;;;;;;;5.80;99.90;;;;;;8382572;28;19925;-69
2022/01/14 22:24:09;;;;;;;;;;;5.80;99.90;;;;;;8381139;28;19928;-69
2022/01/14 22:28:11;;;;;;;;;;;5.80;99.90;;;;;;8386465;28;19957;-70
2022/01/14 22:32:13;;;;;;;;;;;5.80;99.90;;;;;;8382402;28;19968;-69
2022/01/14 22:36:14;;;;;;;;;;;5.80;99.90;;;;;;8379088;28;19956;-70
2022/01/14 22:40:17;;;;;;;;;;;5.70;99.90;;;;;;8383525;28;19980;-69
2022/01/14 22:44:18;;;;;;;;;;;5.70;99.90;;;;;;8374749;28;20373;-69
2022/01/14 22:48:21;;;;;;;;;;;5.70;99.90;;;;;;8377658;28;20474;-69
2022/01/14 22:52:22;;;;;;;;;;;5.70;99.90;;;;;;8377828;28;20334;-69
2022/01/14 22:56:24;;;;;;;;;;;5.70;99.90;;;;;;8380473;28;19978;-68
2022/01/14 23:00:26;;;;;;;;;;;5.70;99.90;;;;;;8376161;28;19956;-69
2022/01/14 23:04:28;;;;;;;;;;;5.70;99.90;;;;;;8390050;28;19924;-69
2022/01/14 23:08:29;;;;;;;;;;;5.60;99.90;;;;;;8373494;28;20329;-69
2022/01/14 23:12:32;;;;;;;;;;;5.60;99.90;;;;;;8386564;28;19936;-69
2022/01/14 23:16:34;;;;;;;;;;;5.60;99.90;;;;;;8370490;28;19959;-69
2022/01/14 23:20:36;;;;;;;;;;;5.60;99.90;;;;;;8388088;28;19931;-69
2022/01/14 23:24:39;;;;;;;;;;;5.60;99.90;;;;;;8385742;28;19940;-69
2022/01/14 23:28:41;;;;;;;;;;;5.50;99.90;;;;;;8372772;28;19940;-68
2022/01/14 23:32:43;;;;;;;;;;;5.60;99.90;;;;;;8378992;28;20022;-69
2022/01/14 23:36:44;;;;;;;;;;;5.60;99.90;;;;;;8386843;28;19943;-69
2022/01/14 23:40:46;;;;;;;;;;;5.50;99.90;;;;;;8384456;28;19929;-69
2022/01/14 23:45:11;;;;;;;;;;;5.40;99.90;;;;;;8382363;28;19964;-68
2022/01/14 23:49:12;;;;;;;;;;;5.40;99.90;;;;;;8387301;28;19960;-70
2022/01/14 23:53:14;;;;;;;;;;;5.40;99.90;;;;;;8383739;28;20008;-70
2022/01/14 23:57:16;;;;;;;;;;;5.40;99.90;;;;;;8380651;28;19944;-69
